Time;durP1;ratioP1;P1;durP2;ratioP2;P2;SDS_P1;SDS_P2;PMS_P1;PMS_P2;Temp;Humidity;BMP_temperature;BMP_pressure;BME280_temperature;BME280_humidity;BME280_pressure;Samples;Min_cycle;Max_cycle;Signal;HPM_P1;HPM_P2
2024/01/05 00:02:29;;;;;;;8.90;1.33;;;8.80;99.90;;;8.67;100.00;99599.69;5311792;27;20047;-48
2024/01/05 00:05:02;;;;;;;6.95;1.83;;;8.80;99.90;;;8.69;100.00;99603.22;5320120;27;20043;-52
2024/01/05 00:07:34;;;;;;;1.10;1.00;;;8.80;99.90;;;8.69;100.00;99592.84;5312741;27;20050;-48
2024/01/05 00:10:08;;;;;;;5.85;1.27;;;8.80;99.90;;;8.67;100.00;99595.41;5309264;27;20130;-49
2024/01/05 00:12:42;;;;;;;4.88;1.20;;;8.80;99.90;;;8.71;100.00;99588.53;5313575;27;20046;-48
2024/01/05 00:15:15;;;;;;;4.65;1.23;;;8.80;99.90;;;8.73;100.00;99579.06;5320367;27;20051;-47
2024/01/05 00:17:48;;;;;;;9.10;1.33;;;8.90;99.90;;;8.76;100.00;99576.53;5305209;27;20038;-48
2024/01/05 00:20:20;;;;;;;6.38;1.20;;;8.90;99.90;;;8.78;100.00;99576.56;5312901;27;20551;-48
2024/01/05 00:22:53;;;;;;;4.93;1.52;;;8.90;99.90;;;8.79;100.00;99568.81;5295332;27;20053;-48
2024/01/05 00:25:25;;;;;;;2.95;1.17;;;8.90;99.90;;;8.79;100.00;99574.00;5292628;27;20043;-46
2024/01/05 00:27:59;;;;;;;4.78;1.35;;;8.90;99.90;;;8.84;100.00;99564.59;5306328;27;20057;-48
2024/01/05 00:30:31;;;;;;;4.10;1.10;;;8.90;99.90;;;8.83;100.00;99565.44;5299399;27;20039;-47
2024/01/05 00:33:04;;;;;;;4.43;0.93;;;9.00;99.90;;;8.82;100.00;99558.50;5286911;27;20047;-48
2024/01/05 00:35:37;;;;;;;4.30;1.20;;;8.90;99.90;;;8.82;100.00;99549.81;5307921;27;20051;-48
2024/01/05 00:38:09;;;;;;;7.47;1.38;;;8.90;99.90;;;8.83;100.00;99544.66;5292672;27;20047;-48
2024/01/05 00:40:42;;;;;;;6.88;1.40;;;8.90;99.90;;;8.80;100.00;99544.59;5290640;27;20043;-47
2024/01/05 00:43:15;;;;;;;3.60;1.35;;;8.90;99.90;;;8.79;100.00;99529.81;5291096;27;20043;-48
2024/01/05 00:45:48;;;;;;;8.18;1.52;;;9.00;99.90;;;8.79;100.00;99532.44;5297768;27;20068;-47
2024/01/05 00:48:20;;;;;;;4.72;1.23;;;9.00;99.90;;;8.80;100.00;99525.50;5308873;27;20050;-48
2024/01/05 00:50:53;;;;;;;2.90;1.60;;;9.00;99.90;;;8.81;100.00;99515.19;5305214;27;20050;-48
2024/01/05 00:53:25;;;;;;;4.70;1.45;;;8.90;99.90;;;8.82;100.00;99522.13;5291178;27;20051;-47
2024/01/05 00:55:57;;;;;;;4.45;0.82;;;9.00;99.90;;;8.82;100.00;99519.53;5306611;27;20134;-48
2024/01/05 00:58:31;;;;;;;1.65;0.93;;;9.00;99.90;;;8.79;100.00;99516.84;5294044;27;20586;-47
2024/01/05 01:01:08;;;;;;;3.33;0.65;;;9.00;99.90;;;8.77;100.00;99517.66;5305098;27;20058;-47
2024/01/05 01:03:40;;;;;;;5.22;1.50;;;8.90;99.90;;;8.76;100.00;99501.19;5295664;27;20043;-48
2024/01/05 01:06:13;;;;;;;2.30;1.15;;;8.90;99.90;;;8.75;100.00;99503.78;5310465;27;20047;-47
2024/01/05 01:08:45;;;;;;;5.15;0.98;;;8.90;99.90;;;8.69;100.00;99495.00;5312667;27;20050;-48
2024/01/05 01:11:18;;;;;;;6.22;1.23;;;8.90;99.90;;;8.69;100.00;99494.13;5299329;27;20043;-48
2024/01/05 01:13:52;;;;;;;5.70;0.93;;;8.90;99.90;;;8.68;100.00;99487.19;5300365;27;20087;-48
2024/01/05 01:16:24;;;;;;;7.13;1.10;;;8.90;99.90;;;8.71;100.00;99495.03;5294626;27;20050;-47
2024/01/05 01:18:57;;;;;;;4.07;1.17;;;8.90;99.90;;;8.69;100.00;99488.94;5301449;27;20052;-47
2024/01/05 01:21:29;;;;;;;1.85;0.95;;;8.90;99.90;;;8.69;100.00;99486.31;5295122;27;20043;-48
2024/01/05 01:24:01;;;;;;;4.65;0.80;;;8.80;99.90;;;8.71;100.00;99492.41;5293151;27;20050;-48
2024/01/05 01:26:34;;;;;;;5.47;0.95;;;8.80;99.90;;;8.71;100.00;99489.81;5294164;27;20047;-48
2024/01/05 01:29:09;;;;;;;2.00;1.10;;;8.90;99.90;;;8.70;100.00;99486.34;5299305;27;20045;-47
2024/01/05 01:31:41;;;;;;;4.10;1.00;;;8.80;99.90;;;8.69;100.00;99484.59;5311409;27;20043;-47
2024/01/05 01:34:14;;;;;;;9.13;1.23;;;8.90;99.90;;;8.68;100.00;99479.38;5301058;27;20035;-48
2024/01/05 01:36:46;;;;;;;3.65;1.27;;;8.80;99.90;;;8.71;100.00;99474.25;5294359;27;20047;-48
2024/01/05 01:39:19;;;;;;;6.07;1.13;;;8.80;99.90;;;8.69;100.00;99468.16;5284085;27;20055;-47
2024/01/05 01:41:51;;;;;;;2.75;0.88;;;8.80;99.90;;;8.67;100.00;99473.31;5293396;27;20407;-49
2024/01/05 01:44:25;;;;;;;8.73;0.93;;;8.80;99.90;;;8.67;100.00;99472.41;5291703;27;20398;-48
2024/01/05 01:46:58;;;;;;;3.40;0.90;;;8.90;99.90;;;8.65;100.00;99477.56;5291314;27;20049;-48
2024/01/05 01:49:30;;;;;;;5.38;0.95;;;8.80;99.90;;;8.62;100.00;99468.84;5286680;27;20070;-48
2024/01/05 01:52:03;;;;;;;6.05;1.15;;;8.80;99.90;;;8.61;100.00;99480.97;5249187;28;20043;-48
2024/01/05 01:54:36;;;;;;;6.60;1.20;;;8.80;99.90;;;8.59;100.00;99472.25;5260149;28;20056;-48
2024/01/05 01:57:09;;;;;;;1.60;1.00;;;8.80;99.90;;;8.59;100.00;99476.56;5249930;28;20118;-48
2024/01/05 01:59:43;;;;;;;4.38;0.95;;;8.80;99.90;;;8.57;100.00;99473.06;5252115;28;20044;-48
2024/01/05 02:02:15;;;;;;;3.28;0.88;;;8.70;99.90;;;8.55;100.00;99474.75;5245552;28;20045;-47
2024/01/05 02:04:48;;;;;;;5.97;1.17;;;8.70;99.90;;;8.53;100.00;99466.03;5266066;28;20048;-48
2024/01/05 02:07:21;;;;;;;3.28;1.00;;;8.70;99.90;;;8.54;100.00;99472.97;5253782;28;20045;-48
2024/01/05 02:09:53;;;;;;;6.05;1.30;;;8.70;99.90;;;8.51;100.00;99463.41;5257032;28;20552;-48
2024/01/05 02:12:26;;;;;;;3.05;1.35;;;8.70;99.90;;;8.45;100.00;99454.63;5258937;28;20123;-47
2024/01/05 02:15:00;;;;;;;1.80;1.10;;;8.60;99.90;;;8.40;100.00;99455.38;5257324;28;20044;-48
2024/01/05 02:17:34;;;;;;;7.57;1.13;;;8.60;99.90;;;8.39;100.00;99453.63;5255302;28;20502;-48
2024/01/05 02:20:09;;;;;;;4.85;1.27;;;8.60;99.90;;;8.40;100.00;99450.19;5244922;28;20040;-48
2024/01/05 02:22:47;;;;;;;6.63;1.15;;;8.60;99.90;;;8.45;100.00;99452.03;5250141;28;20748;-47
2024/01/05 02:25:21;;;;;;;3.95;1.10;;;8.60;99.90;;;8.46;100.00;99446.84;5244836;28;20060;-48
2024/01/05 02:27:53;;;;;;;2.55;1.00;;;8.60;99.90;;;8.46;100.00;99446.84;5258866;28;20517;-48
2024/01/05 02:30:26;;;;;;;7.18;1.23;;;8.60;99.90;;;8.48;100.00;99446.91;5252679;28;20419;-47
2024/01/05 02:32:58;;;;;;;6.32;1.48;;;8.60;99.90;;;8.50;100.00;99437.44;5237481;28;21309;-48
2024/01/05 02:35:31;;;;;;;4.38;1.15;;;8.70;99.90;;;8.56;100.00;99440.16;5225099;28;20056;-52
2024/01/05 02:38:03;;;;;;;2.97;1.20;;;8.70;99.90;;;8.59;100.00;99440.19;5237286;28;20523;-47
2024/01/05 02:40:37;;;;;;;4.47;0.85;;;8.70;99.90;;;8.60;100.00;99432.44;5235148;28;20050;-49
2024/01/05 02:43:09;;;;;;;1.48;0.82;;;8.80;99.90;;;8.62;100.00;99424.69;5224120;28;20137;-47
2024/01/05 02:45:42;;;;;;;3.55;1.00;;;8.80;99.90;;;8.65;100.00;99422.16;5238112;28;20056;-49
2024/01/05 02:48:14;;;;;;;4.85;0.95;;;8.80;99.90;;;8.63;100.00;99416.06;5230930;28;20051;-48
2024/01/05 02:50:47;;;;;;;3.67;1.10;;;8.80;99.90;;;8.63;100.00;99416.06;5238156;28;20041;-48
2024/01/05 02:53:19;;;;;;;5.38;1.48;;;8.80;99.90;;;8.63;100.00;99408.25;5232965;28;20098;-48
2024/01/05 02:55:53;;;;;;;4.75;1.00;;;8.80;99.90;;;8.59;100.00;99404.72;5225601;28;20052;-48
2024/01/05 02:58:25;;;;;;;11.57;1.50;;;8.80;99.90;;;8.58;100.00;99396.91;5230604;28;20055;-48
2024/01/05 03:00:57;;;;;;;8.57;1.10;;;8.80;99.90;;;8.58;100.00;99397.78;5245524;28;20052;-48
2024/01/05 03:03:30;;;;;;;3.70;1.15;;;8.70;99.90;;;8.57;100.00;99395.16;5234289;28;20052;-47
2024/01/05 03:06:02;;;;;;;9.85;1.73;;;8.70;99.90;;;8.52;100.00;99391.56;5224504;28;20059;-47
2024/01/05 03:08:34;;;;;;;3.40;1.17;;;8.70;99.90;;;8.53;100.00;99388.13;5224935;28;20332;-48
2024/01/05 03:11:08;;;;;;;3.53;1.25;;;8.70;99.90;;;8.53;100.00;99382.94;5223506;28;20499;-47
2024/01/05 03:13:41;;;;;;;3.10;1.20;;;8.70;99.90;;;8.54;100.00;99383.00;5232040;28;20594;-48
2024/01/05 03:16:13;;;;;;;2.83;1.10;;;8.70;99.90;;;8.53;100.00;99377.75;5237491;28;20045;-49
2024/01/05 03:18:46;;;;;;;1.05;1.00;;;8.70;99.90;;;8.54;100.00;99374.28;5224879;28;20048;-48
2024/01/05 03:21:18;;;;;;;3.13;1.50;;;8.70;99.90;;;8.54;100.00;99363.91;5242495;28;20083;-48
2024/01/05 03:23:50;;;;;;;3.63;1.13;;;8.70;99.90;;;8.51;100.00;99369.94;5231818;28;20052;-47
2024/01/05 03:26:24;;;;;;;6.15;1.23;;;8.70;99.90;;;8.55;100.00;99366.56;5232618;28;20040;-48
2024/01/05 03:28:56;;;;;;;3.28;1.08;;;8.70;99.90;;;8.50;100.00;99362.13;5239936;28;20049;-48
2024/01/05 03:31:29;;;;;;;7.18;1.50;;;8.70;99.90;;;8.48;100.00;99356.03;5237281;28;20286;-48
2024/01/05 03:34:01;;;;;;;3.30;1.13;;;8.70;99.90;;;8.49;100.00;99352.56;5227261;28;20049;-47
2024/01/05 03:36:33;;;;;;;3.00;1.10;;;8.70;99.90;;;8.47;100.00;99347.31;5234513;28;20059;-48
2024/01/05 03:39:07;;;;;;;7.03;1.23;;;8.70;99.90;;;8.50;100.00;99347.41;5239975;28;20437;-47
2024/01/05 03:41:41;;;;;;;3.55;1.40;;;8.70;99.90;;;8.50;100.00;99343.94;5238707;28;20045;-47
2024/01/05 03:44:20;;;;;;;8.75;1.25;;;8.60;99.90;;;8.50;100.00;99336.16;5235805;28;20048;-47
2024/01/05 03:46:52;;;;;;;3.72;0.98;;;8.60;99.90;;;8.49;100.00;99348.25;5236880;28;20045;-48
2024/01/05 03:49:24;;;;;;;3.88;1.25;;;8.60;99.90;;;8.52;100.00;99339.63;5241054;28;20850;-48
2024/01/05 03:51:57;;;;;;;5.78;1.30;;;8.70;99.90;;;8.52;100.00;99350.03;5236563;28;20041;-48
2024/01/05 03:54:29;;;;;;;1.67;0.93;;;8.70;99.90;;;8.51;100.00;99340.50;5233094;28;20045;-49
2024/01/05 03:57:03;;;;;;;6.82;1.20;;;8.60;99.90;;;8.52;100.00;99331.84;5235677;28;20052;-47
2024/01/05 03:59:36;;;;;;;2.88;1.10;;;8.70;99.90;;;8.47;100.00;99336.94;5242813;28;20083;-48
2024/01/05 04:02:08;;;;;;;2.60;0.90;;;8.60;99.90;;;8.47;100.00;99341.25;5238058;28;20499;-48
2024/01/05 04:04:41;;;;;;;2.90;1.05;;;8.60;99.90;;;8.43;100.00;99335.16;5235474;28;20052;-48
2024/01/05 04:07:13;;;;;;;3.55;0.80;;;8.60;99.90;;;8.41;100.00;99327.34;5234667;28;20048;-48
2024/01/05 04:09:45;;;;;;;3.88;1.05;;;8.60;99.90;;;8.38;100.00;99321.19;5232946;28;20048;-48
2024/01/05 04:12:19;;;;;;;1.70;1.00;;;8.50;99.90;;;8.38;100.00;99322.06;5244221;28;20033;-48
2024/01/05 04:14:51;;;;;;;5.97;1.35;;;8.50;99.90;;;8.34;100.00;99319.31;5239172;28;20086;-48
2024/01/05 04:17:24;;;;;;;3.22;1.20;;;8.50;99.90;;;8.32;100.00;99319.31;5243828;28;20070;-47
2024/01/05 04:19:56;;;;;;;4.95;1.45;;;8.50;99.90;;;8.32;100.00;99321.91;5242186;28;20052;-47
2024/01/05 04:22:30;;;;;;;6.32;1.80;;;8.50;99.90;;;8.30;100.00;99308.03;5244310;28;20045;-48
2024/01/05 04:25:03;;;;;;;4.82;1.35;;;8.50;99.90;;;8.30;100.00;99296.78;5227962;28;20417;-47
2024/01/05 04:27:37;;;;;;;2.25;1.13;;;8.50;99.90;;;8.33;100.00;99294.22;5228631;28;20053;-48
2024/01/05 04:30:10;;;;;;;2.72;0.88;;;8.50;99.90;;;8.36;100.00;99315.09;5245435;28;20045;-47
2024/01/05 04:32:45;;;;;;;4.97;0.95;;;8.50;99.90;;;8.39;100.00;99307.34;5241530;28;20036;-47
2024/01/05 04:35:17;;;;;;;6.35;1.05;;;8.50;99.90;;;8.43;100.00;99309.19;5234172;28;20045;-49
2024/01/05 04:37:49;;;;;;;3.67;1.00;;;8.50;99.90;;;8.46;100.00;99308.34;5240927;28;20051;-48
2024/01/05 04:40:22;;;;;;;0.80;0.50;;;8.60;99.90;;;8.48;100.00;99311.88;5234412;28;20048;-47
2024/01/05 04:42:55;;;;;;;3.33;0.70;;;8.60;99.90;;;8.55;100.00;99316.34;5242518;28;20120;-48
2024/01/05 04:45:28;;;;;;;3.22;0.95;;;8.60;99.90;;;8.58;100.00;99319.84;5238172;28;20056;-47
2024/01/05 04:48:00;;;;;;;2.70;0.95;;;8.60;99.90;;;8.62;100.00;99315.63;5246862;28;20049;-46
2024/01/05 04:50:32;;;;;;;2.53;1.00;;;8.70;99.90;;;8.65;100.00;99318.25;5230632;28;20068;-48
2024/01/05 04:53:05;;;;;;;3.33;1.02;;;8.70;99.90;;;8.70;100.00;99319.22;5242648;28;20338;-47
2024/01/05 04:55:37;;;;;;;6.30;1.05;;;8.70;99.90;;;8.73;100.00;99324.47;5243263;28;20052;-47
2024/01/05 04:58:11;;;;;;;3.28;1.10;;;8.80;99.90;;;8.76;100.00;99321.94;5255189;28;20068;-48
2024/01/05 05:00:44;;;;;;;8.60;0.93;;;8.80;99.90;;;8.79;100.00;99327.16;5240604;28;20088;-47
2024/01/05 05:03:16;;;;;;;5.07;1.40;;;8.80;99.90;;;8.80;100.00;99317.66;5239861;28;20045;-48
2024/01/05 05:05:48;;;;;;;4.50;1.20;;;8.80;99.90;;;8.76;100.00;99321.94;5239770;28;20052;-48
2024/01/05 05:08:21;;;;;;;4.85;1.65;;;8.80;99.90;;;8.77;100.00;99323.69;5232208;28;20053;-48
2024/01/05 05:10:54;;;;;;;3.08;1.23;;;8.80;99.90;;;8.73;100.00;99306.28;5233618;28;20072;-48
2024/01/05 05:13:27;;;;;;;1.63;1.02;;;8.80;99.90;;;8.73;100.00;99306.28;5233853;28;20045;-47
2024/01/05 05:16:01;;;;;;;4.35;1.10;;;8.80;99.90;;;8.75;100.00;99304.59;5234483;28;20048;-48
2024/01/05 05:18:33;;;;;;;3.38;0.82;;;8.80;99.90;;;8.79;100.00;99300.31;5236241;28;20049;-48
2024/01/05 05:21:06;;;;;;;8.32;1.30;;;8.80;99.90;;;8.79;100.00;99298.59;5232553;28;20415;-48
2024/01/05 05:23:39;;;;;;;2.83;1.45;;;8.90;99.90;;;8.83;100.00;99294.34;5236316;28;20048;-47
2024/01/05 05:26:11;;;;;;;4.00;1.40;;;8.90;99.90;;;8.82;100.00;99293.47;5248204;28;20279;-47
2024/01/05 05:28:45;;;;;;;4.75;1.02;;;8.90;99.90;;;8.86;100.00;99290.06;5234203;28;20049;-47
2024/01/05 05:31:17;;;;;;;5.55;1.65;;;8.90;99.90;;;8.86;100.00;99284.84;5231124;28;20045;-48
2024/01/05 05:33:50;;;;;;;2.95;1.42;;;8.90;99.90;;;8.87;100.00;99291.84;5233067;28;20080;-48
2024/01/05 05:36:22;;;;;;;1.95;1.05;;;8.90;99.90;;;8.87;100.00;99284.03;5232623;28;20045;-47
2024/01/05 05:38:54;;;;;;;5.30;1.08;;;8.90;99.90;;;8.87;100.00;99286.63;5227215;28;20506;-48
2024/01/05 05:41:27;;;;;;;2.22;0.93;;;8.90;99.90;;;8.91;100.00;99288.41;5235090;28;20132;-48
2024/01/05 05:44:00;;;;;;;3.53;1.00;;;9.00;99.90;;;8.93;100.00;99281.56;5249867;28;20057;-47
2024/01/05 05:46:33;;;;;;;4.05;0.68;;;9.00;99.90;;;9.00;100.00;99286.81;5235810;28;20049;-48
2024/01/05 05:49:06;;;;;;;1.80;0.77;;;9.00;99.90;;;9.04;100.00;99286.03;5233526;28;20664;-47
2024/01/05 05:51:39;;;;;;;1.25;0.85;;;9.10;99.90;;;9.07;100.00;99283.50;5230005;28;20407;-47
2024/01/05 05:54:11;;;;;;;2.72;1.02;;;9.10;99.90;;;9.13;100.00;99286.22;5233605;28;20044;-48
2024/01/05 05:56:44;;;;;;;2.55;0.70;;;9.10;99.90;;;9.16;100.00;99273.25;5239488;28;20053;-48
2024/01/05 05:59:17;;;;;;;2.50;0.90;;;9.20;99.90;;;9.19;100.00;99279.38;5233178;28;20040;-48
2024/01/05 06:01:50;;;;;;;3.92;0.73;;;9.20;99.90;;;9.23;100.00;99290.69;5227305;28;20059;-48
2024/01/05 06:04:22;;;;;;;2.40;1.42;;;9.30;99.90;;;9.27;100.00;99282.09;5228463;28;20515;-48
2024/01/05 06:06:54;;;;;;;1.80;0.80;;;9.30;99.90;;;9.30;100.00;99284.72;5241848;28;20411;-47
2024/01/05 06:09:27;;;;;;;0.70;0.70;;;9.30;99.90;;;9.31;100.00;99280.41;5230648;28;20530;-48
2024/01/05 06:11:59;;;;;;;2.47;0.82;;;9.40;99.90;;;9.34;100.00;99273.53;5238764;28;20063;-47
2024/01/05 06:14:33;;;;;;;4.53;1.02;;;9.40;99.90;;;9.38;100.00;99285.72;5235442;28;20056;-47
2024/01/05 06:17:06;;;;;;;1.05;0.65;;;9.40;99.90;;;9.40;100.00;99273.63;5239171;28;20078;-48
2024/01/05 06:19:38;;;;;;;2.38;0.73;;;9.40;99.90;;;9.40;100.00;99271.03;5231435;28;20423;-49
2024/01/05 06:22:10;;;;;;;0.88;0.60;;;9.50;99.90;;;9.45;100.00;99285.00;5237237;28;20041;-48
2024/01/05 06:24:44;;;;;;;3.67;0.70;;;9.50;99.90;;;9.48;100.00;99282.44;5231683;28;20052;-48
2024/01/05 06:27:16;;;;;;;1.67;0.55;;;9.50;99.90;;;9.50;100.00;99267.72;5241202;28;20037;-47
2024/01/05 06:29:50;;;;;;;2.50;0.98;;;9.50;99.90;;;9.47;100.00;99259.88;5233148;28;20064;-48
2024/01/05 06:32:23;;;;;;;1.40;0.95;;;9.50;99.90;;;9.46;100.00;99265.94;5232146;28;20040;-48
2024/01/05 06:34:55;;;;;;;4.57;0.90;;;9.50;99.90;;;9.45;100.00;99256.38;5234933;28;20844;-48
2024/01/05 06:37:29;;;;;;;6.00;0.70;;;9.50;99.90;;;9.44;100.00;99258.94;5235630;28;20804;-48
2024/01/05 06:40:01;;;;;;;3.25;0.77;;;9.50;99.90;;;9.39;100.00;99261.50;5238135;28;20052;-47
2024/01/05 06:42:33;;;;;;;0.93;0.77;;;9.50;99.90;;;9.34;100.00;99267.47;5233363;28;20526;-48
2024/01/05 06:45:08;;;;;;;1.50;0.80;;;9.40;99.90;;;9.29;100.00;99272.59;5234089;28;20426;-47
2024/01/05 06:47:41;;;;;;;1.45;0.70;;;9.40;99.90;;;9.28;100.00;99281.25;5237599;28;20103;-48
2024/01/05 06:50:13;;;;;;;2.60;0.93;;;9.40;99.90;;;9.28;100.00;99276.03;5234218;28;20055;-48
2024/01/05 06:52:45;;;;;;;2.97;0.70;;;9.40;99.90;;;9.25;100.00;99278.56;5235977;28;20064;-48
2024/01/05 06:55:19;;;;;;;2.53;0.80;;;9.30;99.90;;;9.22;100.00;99276.81;5240819;28;20036;-48
2024/01/05 06:57:51;;;;;;;1.38;0.57;;;9.30;99.90;;;9.26;100.00;99277.75;5234672;28;20045;-47
2024/01/05 07:00:25;;;;;;;0.82;0.60;;;9.30;99.90;;;9.33;100.00;99274.41;5239311;28;20068;-48
2024/01/05 07:02:57;;;;;;;1.02;0.60;;;9.40;99.90;;;9.34;100.00;99276.16;5228761;28;20414;-48
2024/01/05 07:05:30;;;;;;;0.90;0.43;;;9.40;99.90;;;9.35;100.00;99272.69;5232515;28;20127;-47
2024/01/05 07:08:02;;;;;;;2.40;0.60;;;9.40;99.90;;;9.37;100.00;99273.56;5233636;28;20460;-48
2024/01/05 07:10:34;;;;;;;1.30;0.65;;;9.40;99.90;;;9.39;100.00;99271.91;5234819;28;20069;-46
2024/01/05 07:13:07;;;;;;;6.22;1.00;;;9.50;99.90;;;9.41;100.00;99267.59;5240888;28;20045;-47
2024/01/05 07:15:41;;;;;;;2.90;0.82;;;9.50;99.90;;;9.44;100.00;99259.81;5241502;28;20111;-48
2024/01/05 07:18:14;;;;;;;4.53;0.73;;;9.50;99.90;;;9.45;100.00;99258.97;5236618;28;20040;-48
2024/01/05 07:20:46;;;;;;;0.82;0.50;;;9.50;99.90;;;9.47;100.00;99246.00;5238014;28;20041;-48
2024/01/05 07:23:18;;;;;;;1.50;0.63;;;9.50;99.90;;;9.48;100.00;99256.41;5227281;28;20041;-47
2024/01/05 07:25:51;;;;;;;3.15;0.65;;;9.50;99.90;;;9.45;100.00;99255.47;5229448;28;20060;-47
2024/01/05 07:28:23;;;;;;;1.92;0.73;;;9.50;99.90;;;9.46;100.00;99252.94;5232567;28;20052;-48
2024/01/05 07:30:57;;;;;;;0.93;0.80;;;9.50;99.90;;;9.48;100.00;99266.81;5233220;28;20125;-47
2024/01/05 07:33:29;;;;;;;7.40;0.88;;;9.50;99.90;;;9.49;100.00;99263.34;5235529;28;20045;-47
2024/01/05 07:36:06;;;;;;;1.85;0.75;;;9.60;99.90;;;9.51;100.00;99261.66;5242177;28;20049;-48
2024/01/05 07:38:38;;;;;;;3.92;0.80;;;9.50;99.90;;;9.52;100.00;99260.81;5239786;28;20063;-47
2024/01/05 07:41:16;;;;;;;2.55;0.80;;;9.60;99.90;;;9.50;100.00;99262.50;5251561;28;20443;-47
2024/01/05 07:43:48;;;;;;;0.77;0.52;;;9.60;99.90;;;9.52;100.00;99258.22;5241418;28;20043;-47
2024/01/05 07:46:25;;;;;;;0.85;0.40;;;9.60;99.90;;;9.54;100.00;99263.44;5246463;28;20053;-48
2024/01/05 07:48:58;;;;;;;2.13;0.55;;;9.60;99.90;;;9.55;100.00;99266.91;5238271;28;20048;-48
2024/01/05 07:51:30;;;;;;;1.10;1.00;;;9.60;99.90;;;9.54;100.00;99266.03;5237826;28;20515;-48
2024/01/05 07:54:02;;;;;;;0.85;0.60;;;9.60;99.90;;;9.57;100.00;99273.00;5229682;28;20525;-48
2024/01/05 07:56:38;;;;;;;2.17;0.60;;;9.60;99.90;;;9.58;100.00;99272.16;5253534;28;20787;-47
2024/01/05 07:59:11;;;;;;;1.95;0.73;;;9.60;99.90;;;9.64;100.00;99267.91;5229766;28;20244;-48
2024/01/05 08:01:44;;;;;;;2.65;0.68;;;9.70;99.90;;;9.66;100.00;99261.03;5233146;28;20519;-48
2024/01/05 08:04:17;;;;;;;0.77;0.60;;;9.70;99.90;;;9.65;100.00;99254.06;5239047;28;20052;-48
2024/01/05 08:06:50;;;;;;;0.98;0.70;;;9.60;99.90;;;9.69;100.00;99249.75;5235563;28;20052;-47
2024/01/05 08:09:23;;;;;;;0.80;0.60;;;9.70;99.90;;;9.72;100.00;99262.84;5243312;28;20053;-47
2024/01/05 08:11:55;;;;;;;2.28;0.50;;;9.70;99.90;;;9.76;100.00;99262.88;5242603;28;20384;-47
2024/01/05 08:14:28;;;;;;;6.00;0.60;;;9.80;99.90;;;9.68;100.00;99263.63;5242811;28;20101;-48
2024/01/05 08:17:02;;;;;;;3.15;0.90;;;9.70;99.90;;;9.64;100.00;99272.22;5243252;28;20059;-48
2024/01/05 08:19:34;;;;;;;2.70;0.47;;;9.70;99.90;;;9.64;100.00;99274.84;5237501;28;20059;-48
2024/01/05 08:22:06;;;;;;;1.45;0.52;;;9.70;99.90;;;9.66;100.00;99286.16;5237573;28;20048;-47
2024/01/05 08:24:39;;;;;;;1.15;0.95;;;9.60;99.90;;;9.68;100.00;99279.25;5236147;28;20136;-48
2024/01/05 08:27:11;;;;;;;1.75;0.80;;;9.70;99.90;;;9.73;100.00;99290.59;5237456;28;20059;-48
2024/01/05 08:29:44;;;;;;;3.88;0.77;;;9.70;99.90;;;9.76;100.00;99298.44;5238843;28;20533;-48
2024/01/05 08:32:17;;;;;;;1.77;0.63;;;9.70;99.90;;;9.76;100.00;99290.63;5241242;28;20045;-48
2024/01/05 08:34:50;;;;;;;1.85;0.57;;;9.70;99.90;;;9.72;100.00;99297.53;5241961;28;20135;-47
2024/01/05 08:37:22;;;;;;;1.95;0.40;;;9.70;99.90;;;9.79;100.00;99303.69;5228781;28;20483;-46
2024/01/05 08:39:55;;;;;;;1.02;0.70;;;9.80;99.90;;;9.81;100.00;99299.38;5189695;28;20056;-46
2024/01/05 08:42:27;;;;;;;2.20;0.50;;;9.80;99.90;;;9.75;100.00;99305.38;5232296;28;20045;-47
2024/01/05 08:45:00;;;;;;;0.75;0.52;;;9.80;99.90;;;9.78;100.00;99313.22;5228978;28;20080;-48
2024/01/05 08:47:33;;;;;;;2.95;0.57;;;9.70;99.90;;;9.72;100.00;99317.47;5227060;28;20261;-46
2024/01/05 08:50:08;;;;;;;2.00;0.73;;;9.70;99.90;;;9.71;100.00;99315.69;5226187;28;20076;-46
2024/01/05 08:52:40;;;;;;;;;;;9.70;99.90;;;9.67;100.00;99322.59;5239229;28;20155;-47
2024/01/05 08:55:15;;;;;;;0.52;0.52;;;9.70;99.90;;;9.67;100.00;99333.00;5232825;28;19931;-47
2024/01/05 08:57:48;;;;;;;1.30;0.60;;;9.70;99.90;;;9.69;100.00;99333.91;5231069;28;20048;-47
2024/01/05 09:00:21;;;;;;;1.23;0.50;;;9.70;99.90;;;9.73;100.00;99322.69;5234134;28;20103;-47
2024/01/05 09:02:55;;;;;;;0.32;0.30;;;9.70;99.90;;;9.80;100.00;99326.25;5237205;28;20044;-47
2024/01/05 09:05:28;;;;;;;0.55;0.30;;;9.80;99.90;;;9.77;100.00;99318.38;5231166;28;20417;-47
2024/01/05 09:08:00;;;;;;;0.50;0.30;;;9.80;99.90;;;9.71;100.00;99326.09;5240634;28;20054;-48
2024/01/05 09:10:33;;;;;;;0.35;0.35;;;9.70;99.90;;;9.66;100.00;99338.19;5226244;28;20045;-47
2024/01/05 09:13:06;;;;;;;0.65;0.30;;;9.70;99.90;;;9.68;100.00;99349.50;5233944;28;20122;-47
2024/01/05 09:15:39;;;;;;;1.50;0.47;;;9.70;99.90;;;9.70;100.00;99355.59;5238413;28;20427;-47
2024/01/05 09:18:13;;;;;;;0.32;0.32;;;9.70;99.90;;;9.76;100.00;99345.28;5237251;28;20051;-47
2024/01/05 09:20:45;;;;;;;1.67;0.50;;;9.70;99.90;;;9.76;100.00;99334.84;5233108;28;20538;-48
2024/01/05 09:23:18;;;;;;;0.28;0.28;;;9.70;99.90;;;9.69;100.00;99327.81;5258941;28;22420;-47
2024/01/05 09:25:50;;;;;;;0.60;0.47;;;9.70;99.90;;;9.69;100.00;99338.22;5234893;28;20696;-47
2024/01/05 09:28:22;;;;;;;0.30;0.30;;;9.70;99.90;;;9.79;100.00;99345.34;5234327;28;20064;-48
2024/01/05 09:30:55;;;;;;;0.47;0.30;;;9.80;99.90;;;9.75;100.00;99343.53;5235857;28;20064;-48
2024/01/05 09:33:29;;;;;;;1.15;0.40;;;9.70;99.90;;;9.75;100.00;99348.72;5232786;28;20041;-47
2024/01/05 09:36:02;;;;;;;0.25;0.25;;;9.80;99.90;;;9.72;100.00;99356.50;5240978;28;20053;-47
2024/01/05 09:38:36;;;;;;;0.30;0.30;;;9.70;99.90;;;9.70;100.00;99350.38;5241879;28;20070;-47
2024/01/05 09:41:12;;;;;;;0.30;0.30;;;9.70;99.90;;;9.73;100.00;99350.44;5240841;28;20056;-48
2024/01/05 09:43:48;;;;;;;0.30;0.22;;;9.70;99.90;;;9.77;100.00;99353.09;5234877;28;20072;-47
2024/01/05 09:46:21;;;;;;;0.35;0.32;;;9.80;99.90;;;9.77;100.00;99362.63;5230616;28;20470;-48
2024/01/05 09:48:56;;;;;;;0.85;0.22;;;9.70;99.90;;;9.81;100.00;99366.16;5232856;28;20521;-47
2024/01/05 09:51:30;;;;;;;0.22;0.22;;;9.80;99.90;;;9.88;100.00;99361.06;5235874;28;20443;-47
2024/01/05 09:54:04;;;;;;;1.40;0.30;;;9.80;99.90;;;10.00;100.00;99366.47;5233604;28;20044;-47
2024/01/05 09:56:38;;;;;;;0.20;0.20;;;9.90;99.90;;;10.15;100.00;99370.13;5236008;28;20113;-48
2024/01/05 09:59:10;;;;;;;0.98;0.25;;;10.00;99.90;;;10.21;100.00;99376.28;5248415;28;20438;-47
2024/01/05 10:01:43;;;;;;;0.77;0.30;;;10.10;99.90;;;10.32;100.00;99364.31;5237748;28;20048;-47
2024/01/05 10:04:19;;;;;;;0.32;0.32;;;10.20;99.90;;;10.37;100.00;99368.69;5237694;28;20080;-47
2024/01/05 10:07:00;;;;;;;0.17;0.17;;;10.30;99.90;;;10.38;100.00;99373.09;5230433;28;20118;-46
2024/01/05 10:09:33;;;;;;;0.20;0.20;;;10.30;99.90;;;10.38;100.00;99380.91;5231040;28;20076;-47
2024/01/05 10:12:13;;;;;;;0.20;0.20;;;10.30;99.90;;;10.41;100.00;99373.97;5234525;28;20130;-47
2024/01/05 10:14:46;;;;;;;0.52;0.32;;;10.30;99.90;;;10.35;100.00;99371.28;5233122;28;20499;-47
2024/01/05 10:17:18;;;;;;;0.35;0.35;;;10.30;99.90;;;10.35;100.00;99378.25;5231239;28;20636;-47
2024/01/05 10:19:52;;;;;;;0.47;0.30;;;10.30;99.90;;;10.35;100.00;99376.50;5232693;28;20048;-47
2024/01/05 10:22:26;;;;;;;0.20;0.20;;;10.20;99.90;;;10.35;100.00;99380.84;5226423;28;20041;-47
2024/01/05 10:25:16;;;;;;;0.22;0.22;;;10.30;99.90;;;10.42;100.00;99385.28;5225972;28;20127;-48
2024/01/05 10:27:50;;;;;;;0.38;0.38;;;10.30;99.90;;;10.40;100.00;99389.59;5233252;28;20036;-48
2024/01/05 10:30:28;;;;;;;0.30;0.30;;;10.30;99.90;;;10.39;100.00;99378.31;5241394;28;20043;-47
2024/01/05 10:33:05;;;;;;;0.25;0.25;;;10.30;99.90;;;10.40;100.00;99369.63;5225973;28;20107;-47
2024/01/05 10:35:39;;;;;;;0.13;0.13;;;10.40;99.90;;;10.32;100.00;99368.66;5236197;28;20392;-47
2024/01/05 10:38:13;;;;;;;0.20;0.20;;;10.30;99.90;;;10.45;100.00;99380.13;5232844;28;20033;-46
2024/01/05 10:40:46;;;;;;;0.65;0.22;;;10.30;99.90;;;10.63;97.78;99379.44;5234702;28;20056;-47
2024/01/05 10:43:22;;;;;;;1.20;0.30;;;10.50;99.90;;;10.80;98.59;99389.22;5234437;28;20052;-47
2024/01/05 10:45:55;;;;;;;0.20;0.20;;;10.60;99.90;;;10.95;96.78;99391.13;5225405;28;20072;-49
2024/01/05 10:48:28;;;;;;;0.22;0.20;;;10.70;99.90;;;10.98;95.02;99383.34;5226115;28;20070;-46
2024/01/05 10:51:03;;;;;;;0.10;0.10;;;10.80;99.90;;;10.95;94.32;99404.16;5233243;28;20518;-64